Bookmark and Share
Track history (hours):
 

British Ensign

Last reported at 2014-Apr-19 16:33 UTC. Time now 2014-Apr-19 17:15 UTC.
Position N 54°57' E 013°48'.

Length 184.2 m; beam 27.4 m; draft 11.3 m.

Type: Ship. MMSI: 235010980.

NotesDate/timePositionNaut miles runAvg speedWind from/ knotsBaromVisibWave heightAir tempDewpointWater temp
2014-Apr-19 16:33N 54°57' E 013°48'1313.1
2014-Apr-19 15:33N 54°52' E 013°27'1212.5
2014-Apr-19 14:33N 54°48' E 013°06'1313.2
2014-Apr-19 13:33N 54°44' E 012°45'1313.4
2014-Apr-19 12:34N 54°36' E 012°25'1313.5
2014-Apr-19 11:33N 54°26' E 012°11'1212.4
2014-Apr-19 10:33N 54°25' E 011°49'1312.8
2014-Apr-19 09:33N 54°30' E 011°29'1413.8
2014-Apr-19 08:33N 54°36' E 011°08'1313.1
2014-Apr-19 07:33N 54°45' E 010°52'1312.9
2014-Apr-19 06:31N 54°58' E 010°58'1513.4
2014-Apr-19 05:23N 55°13' E 011°06'8812.2
2014-Apr-18 22:13N 56°38' E 011°44'913.6
2014-Apr-18 21:33N 56°46' E 011°51'1414.0
2014-Apr-18 20:33N 56°59' E 011°43'1413.9
2014-Apr-18 19:33N 57°12' E 011°35'1413.9
2014-Apr-18 18:33N 57°25' E 011°25'1413.6
2014-Apr-18 17:33N 57°33' E 011°05'1313.3
2014-Apr-18 16:33N 57°41' E 010°45'3 2.8
2014-Apr-18 15:29N 57°43' E 010°40'0 0.1
2014-Apr-18 14:29N 57°43' E 010°40'0 0.0
2014-Apr-18 13:32N 57°43' E 010°40'0 0.0
2014-Apr-18 12:29N 57°43' E 010°40'0 0.0
2014-Apr-18 11:11N 57°43' E 010°40'0 0.0
2014-Apr-18 10:32N 57°43' E 010°40'0 0.0
2014-Apr-18 09:32N 57°43' E 010°40'0 0.0
2014-Apr-18 08:32N 57°43' E 010°40'0 0.0
2014-Apr-18 07:17N 57°43' E 010°40'0 0.1
2014-Apr-18 06:11N 57°43' E 010°40'0 0.0
2014-Apr-18 05:26N 57°43' E 010°40'0 0.0
2014-Apr-18 04:32N 57°43' E 010°40'0 0.1
2014-Apr-18 03:32N 57°43' E 010°40'0 0.2
2014-Apr-18 02:29N 57°43' E 010°40'0 0.0
2014-Apr-18 01:32N 57°43' E 010°40'0 0.0
2014-Apr-18 00:32N 57°43' E 010°40'0 0.1
2014-Apr-17 23:32N 57°43' E 010°40'2 1.5
2014-Apr-17 22:00N 57°42' E 010°36'2 5.2 230 / 111001.6 5.4 0.5 7.0 4.7
2014-Apr-17 21:32N 57°43' E 010°40'0 0.0
2014-Apr-17 20:32N 57°43' E 010°40'0 0.0
2014-Apr-17 19:32N 57°43' E 010°40'0 0.0
2014-Apr-17 18:17N 57°43' E 010°40'0 0.0
2014-Apr-17 17:26N 57°43' E 010°40'0 0.0
2014-Apr-17 16:32N 57°43' E 010°40'0 0.0
2014-Apr-17 15:32N 57°43' E 010°40'0 0.0
2014-Apr-17 14:33N 57°43' E 010°40'4 4.1
2014-Apr-17 13:33N 57°46' E 010°44'1312.7
2014-Apr-17 12:33N 57°46' E 010°20'5615.9
2014-Apr-17 09:00N 57°36' E 008°36'15615.6 220 / 211008.8 2.2 2.0 8.0 5.8
2014-Apr-16 23:00N 58°06' E 003°48'6611.3 200 / 181016.9 5.4 2.0 8.0 5.8
2014-Apr-16 17:09N 58°33' E 001°53'20913.2
2014-Apr-16 01:24N 59°15' W 004°43'3414.3
2014-Apr-15 23:00N 58°54' W 005°36'2114.3 200 / 51018.9 5.4 1.5 9.0 6.9
2014-Apr-15 21:33N 58°44' W 006°11'1614.6
2014-Apr-15 20:29N 58°35' W 006°36'2914.5
2014-Apr-15 18:28N 58°17' W 007°19'14411.1
2014-Apr-15 05:30N 55°53' W 007°04'2613.2
2014-Apr-15 03:34N 55°30' W 006°43'1414.2
2014-Apr-15 02:34N 55°27' W 006°19'1515.0
2014-Apr-15 01:34N 55°19' W 005°56'1717.2
2014-Apr-15 00:33N 55°04' W 005°41'1616.4
2014-Apr-14 23:34N 54°50' W 005°25'3053.2
2014-Apr-14 23:00N 54°24' W 005°00'1535.2 350 / 61028.2 5.4 9.0 6.9
2014-Apr-14 22:34N 54°38' W 005°12'1414.1
2014-Apr-14 21:34N 54°25' W 004°60'1513.9
2014-Apr-14 20:31N 54°11' W 005°00'1313.5
2014-Apr-14 19:34N 53°58' W 005°00'3812.7
2014-Apr-14 16:33N 53°30' W 004°15'23 2.8
2014-Apr-14 08:34N 53°33' W 003°37'1212.3
2014-Apr-14 07:34N 53°32' W 003°17'9 8.6
2014-Apr-14 06:33N 53°28' W 003°04'  
2014-Apr-11 21:11N 53°23' W 002°60'1 0.9
2014-Apr-11 20:33N 53°23' W 003°00'6 6.4
2014-Apr-11 19:33N 53°29' W 003°05'9 9.4
2014-Apr-11 18:34N 53°31' W 003°20'1212.0
2014-Apr-11 17:33N 53°31' W 003°41'9 9.3
2014-Apr-11 16:33N 53°29' W 003°56'1312.5
2014-Apr-11 15:32N 53°27' W 004°17'4613.1
2014-Apr-11 12:00N 54°06' W 005°00'10 6.1 260 / 51023.2 5.4 0.510.0 3.1
2014-Apr-11 10:25N 54°16' W 005°00'1212.8
2014-Apr-11 09:31N 54°27' W 005°02'1313.5
2014-Apr-11 08:33N 54°38' W 005°15'1413.8
2014-Apr-11 07:33N 54°49' W 005°29'1514.1
2014-Apr-11 06:31N 55°01' W 005°43'1515.4
2014-Apr-11 05:33N 55°13' W 005°57'1414.2
2014-Apr-11 04:33N 55°22' W 006°17'1313.5
2014-Apr-11 03:33N 55°27' W 006°39'1312.9
2014-Apr-11 02:33N 55°38' W 006°51'1211.9
2014-Apr-11 01:33N 55°49' W 007°00'211 9.5
2014-Apr-10 03:16N 59°10' W 004°58'811.0
2014-Apr-10 02:33N 59°14' W 004°46'1111.3
2014-Apr-10 01:33N 59°20' W 004°27'1311.7
2014-Apr-10 00:25N 59°27' W 004°05'1011.6
2014-Apr-09 23:32N 59°31' W 003°46'1111.7
2014-Apr-09 22:33N 59°33' W 003°24'  

Dump ship's entire track history

sailing weather and tide predictions

British Ensign — MMER9 — position and weather